createdAt,value
2019-01-20T00:01:42.169Z,12.27
2019-01-20T00:06:45.750Z,10.30
2019-01-20T00:11:49.182Z,12.20
2019-01-20T00:16:52.611Z,11.03
2019-01-20T00:21:56.162Z,9.90
2019-01-20T00:26:59.598Z,10.93
2019-01-20T00:32:03.026Z,10.50
2019-01-20T00:37:06.454Z,9.83
2019-01-20T00:42:09.896Z,9.07
2019-01-20T00:47:13.403Z,11.20
2019-01-20T00:52:17.193Z,10.70
2019-01-20T00:57:20.628Z,8.63
2019-01-20T01:02:24.134Z,10.40
2019-01-20T01:07:27.591Z,10.97
2019-01-20T01:12:31.277Z,10.63
2019-01-20T01:17:34.714Z,9.43
2019-01-20T01:22:38.192Z,9.93
2019-01-20T01:27:41.686Z,8.97
2019-01-20T01:32:45.113Z,12.27
2019-01-20T01:37:48.608Z,10.73
2019-01-20T01:42:52.101Z,8.63
2019-01-20T01:47:55.542Z,7.17
2019-01-20T01:52:58.980Z,12.90
2019-01-20T01:58:02.415Z,9.57
2019-01-20T02:03:05.908Z,10.17
2019-01-20T02:08:09.343Z,10.17
2019-01-20T02:13:12.774Z,10.13
2019-01-20T02:18:16.276Z,10.63
2019-01-20T02:23:19.700Z,8.43
2019-01-20T02:28:23.384Z,10.20
2019-01-20T02:33:26.850Z,8.37
2019-01-20T02:38:30.260Z,7.83
2019-01-20T02:43:33.674Z,9.63
2019-01-20T02:48:37.116Z,11.30
2019-01-20T02:53:40.546Z,13.33
2019-01-20T02:58:44.048Z,12.87
2019-01-20T03:03:47.483Z,11.23
2019-01-20T03:08:50.910Z,8.20
2019-01-20T03:13:54.317Z,9.17
2019-01-20T03:18:57.800Z,6.87
2019-01-20T03:24:01.243Z,10.10
2019-01-20T03:29:04.954Z,11.97
2019-01-20T03:34:08.378Z,9.70
2019-01-20T03:39:11.879Z,9.97
2019-01-20T03:44:15.372Z,11.20
2019-01-20T03:49:18.787Z,8.60
2019-01-20T03:54:22.280Z,10.37
2019-01-20T03:59:25.695Z,7.40
2019-01-20T04:04:29.125Z,9.23
2019-01-20T04:09:32.550Z,12.10
2019-01-20T04:14:35.988Z,9.97
2019-01-20T04:19:39.416Z,10.57
2019-01-20T04:24:42.833Z,10.37
2019-01-20T04:29:46.266Z,12.17
2019-01-20T04:34:49.698Z,7.70
2019-01-20T04:39:53.104Z,9.17
2019-01-20T04:44:56.526Z,10.23
2019-01-20T04:49:59.953Z,8.03
2019-01-20T04:55:04.357Z,10.10
2019-01-20T05:00:10.854Z,9.60
2019-01-20T05:05:14.503Z,10.77
2019-01-20T05:10:18.956Z,12.13
2019-01-20T05:15:23.430Z,11.17
2019-01-20T05:20:26.847Z,9.53
2019-01-20T05:25:30.262Z,11.13
2019-01-20T05:30:33.765Z,12.10
2019-01-20T05:35:37.350Z,11.87
2019-01-20T05:40:40.772Z,12.33
2019-01-20T05:45:44.190Z,9.30
2019-01-20T05:50:47.784Z,7.87
2019-01-20T05:55:51.200Z,9.23
2019-01-20T06:00:54.640Z,10.23
2019-01-20T06:05:58.061Z,13.10
2019-01-20T06:11:01.518Z,8.87
2019-01-20T06:16:05.084Z,8.57
2019-01-20T06:21:08.505Z,10.00
2019-01-20T06:26:11.913Z,9.33
2019-01-20T06:31:15.355Z,7.17
2019-01-20T06:36:18.775Z,8.30
2019-01-20T06:41:22.213Z,11.67
2019-01-20T06:46:25.625Z,10.00
2019-01-20T06:51:29.041Z,12.70
2019-01-20T06:56:32.444Z,12.87
2019-01-20T07:01:35.873Z,11.53
2019-01-20T07:06:39.498Z,7.73
2019-01-20T07:11:42.905Z,9.23
2019-01-20T07:16:46.347Z,11.10
2019-01-20T07:21:49.762Z,9.47
2019-01-20T07:26:53.202Z,11.73
2019-01-20T07:31:56.646Z,12.23
2019-01-20T07:37:00.149Z,12.63
2019-01-20T07:42:03.653Z,6.80
2019-01-20T07:47:07.162Z,10.30
2019-01-20T07:52:10.575Z,12.37
2019-01-20T07:57:13.986Z,10.50
2019-01-20T08:02:17.415Z,9.10
2019-01-20T08:07:20.860Z,9.33
2019-01-20T08:12:24.285Z,10.40
2019-01-20T08:17:27.701Z,11.63
2019-01-20T08:22:31.215Z,12.50
2019-01-20T08:27:34.712Z,13.93
2019-01-20T08:32:38.153Z,15.63
2019-01-20T08:37:41.817Z,19.87
2019-01-20T08:42:45.256Z,19.43
2019-01-20T08:47:50.914Z,15.77
2019-01-20T08:52:54.365Z,17.63
2019-01-20T08:57:57.790Z,23.33
2019-01-20T09:03:01.219Z,15.60
2019-01-20T09:08:05.174Z,16.93
2019-01-20T09:13:09.877Z,16.50
2019-01-20T09:18:13.282Z,13.13
2019-01-20T09:23:16.711Z,13.77
2019-01-20T09:28:20.141Z,14.17
2019-01-20T09:33:24.736Z,16.23
2019-01-20T09:38:28.279Z,12.80
2019-01-20T09:43:31.806Z,17.03
2019-01-20T09:48:35.283Z,14.97
2019-01-20T09:53:38.705Z,15.27
2019-01-20T09:58:42.124Z,16.80
2019-01-20T10:03:45.553Z,17.90
2019-01-20T10:08:48.989Z,16.07
2019-01-20T10:13:55.026Z,14.30
2019-01-20T10:18:57.564Z,15.10
2019-01-20T10:24:01.065Z,19.97
2019-01-20T10:29:04.593Z,13.77
2019-01-20T10:34:08.023Z,17.67
2019-01-20T10:39:11.533Z,21.97
2019-01-20T10:44:14.962Z,14.23
2019-01-20T10:49:18.465Z,17.03
2019-01-20T10:54:21.927Z,14.77
2019-01-20T10:59:25.385Z,17.10
2019-01-20T11:04:28.926Z,16.20
2019-01-20T11:09:32.430Z,15.80
2019-01-20T11:14:35.855Z,13.07
2019-01-20T11:19:39.355Z,15.93
2019-01-20T11:24:42.797Z,13.83
2019-01-20T11:29:46.239Z,15.17
2019-01-20T11:34:49.667Z,13.17
2019-01-20T11:39:53.124Z,25.47
2019-01-20T11:44:56.565Z,14.43
2019-01-20T11:49:59.998Z,13.70
2019-01-20T11:55:03.739Z,12.90
2019-01-20T12:00:12.991Z,12.57
2019-01-20T12:05:17.645Z,13.83
2019-01-20T12:10:21.513Z,12.50
2019-01-20T12:15:24.949Z,13.53
2019-01-20T12:20:28.449Z,12.37
2019-01-20T12:25:31.994Z,13.83
2019-01-20T12:30:37.778Z,12.23
2019-01-20T12:35:41.379Z,11.27
2019-01-20T12:40:45.931Z,10.53
2019-01-20T12:45:49.374Z,18.13
2019-01-20T12:50:52.802Z,11.70
2019-01-20T12:55:56.304Z,14.03
2019-01-20T13:00:59.739Z,14.67
2019-01-20T13:06:03.283Z,13.37
2019-01-20T13:11:06.793Z,16.63
2019-01-20T13:16:10.235Z,15.50
2019-01-20T13:21:13.670Z,14.73
2019-01-20T13:26:17.180Z,12.60
2019-01-20T13:31:20.606Z,11.20
2019-01-20T13:36:24.028Z,15.57
2019-01-20T13:41:27.466Z,13.97
2019-01-20T13:46:30.904Z,12.47
2019-01-20T13:51:34.363Z,43.67
2019-01-20T13:56:37.815Z,57.03
2019-01-20T14:01:41.247Z,22.53
2019-01-20T14:06:44.706Z,33.53
2019-01-20T14:11:48.169Z,32.40
2019-01-20T14:16:51.657Z,24.40
2019-01-20T14:21:55.098Z,16.90
2019-01-20T14:26:58.520Z,19.73
2019-01-20T14:32:02.024Z,21.17
2019-01-20T14:37:05.541Z,12.93
2019-01-20T14:42:08.987Z,14.40
2019-01-20T14:47:12.407Z,14.10
2019-01-20T14:52:15.853Z,16.13
2019-01-20T14:57:19.305Z,13.70
2019-01-20T15:02:22.739Z,14.47
2019-01-20T15:07:26.166Z,15.87
2019-01-20T15:12:29.680Z,14.57
2019-01-20T15:17:33.134Z,12.70
2019-01-20T15:22:36.636Z,12.53
2019-01-20T15:27:40.146Z,11.37
2019-01-20T15:32:43.587Z,10.90
2019-01-20T15:37:47.075Z,12.83
2019-01-20T15:42:50.761Z,13.23
2019-01-20T15:48:00.683Z,23.60
2019-01-20T15:53:08.761Z,19.10
2019-01-20T15:58:12.309Z,17.73
2019-01-20T16:03:15.772Z,18.33
2019-01-20T16:08:19.205Z,13.23
2019-01-20T16:13:22.740Z,15.27
2019-01-20T16:18:26.438Z,16.00
2019-01-20T16:23:29.928Z,15.37
2019-01-20T16:28:33.371Z,15.87
2019-01-20T16:33:36.802Z,15.23
2019-01-20T16:38:40.234Z,15.63
2019-01-20T16:43:43.657Z,16.37
2019-01-20T16:48:47.092Z,17.67
2019-01-20T16:53:50.595Z,19.83
2019-01-20T16:58:54.165Z,14.00
2019-01-20T17:03:57.935Z,19.63
2019-01-20T17:09:01.662Z,20.27
2019-01-20T17:14:05.422Z,14.70
2019-01-20T17:19:08.846Z,18.80
2019-01-20T17:24:12.287Z,17.27
2019-01-20T17:29:15.697Z,24.47
2019-01-20T17:34:19.117Z,19.30
2019-01-20T17:39:22.563Z,26.13
2019-01-20T17:44:26.004Z,23.27
2019-01-20T17:49:29.451Z,23.97
2019-01-20T17:54:32.907Z,32.83
2019-01-20T17:59:36.350Z,31.87
2019-01-20T18:04:39.792Z,30.53
2019-01-20T18:09:43.231Z,29.03
2019-01-20T18:14:46.669Z,25.43
2019-01-20T18:19:50.114Z,24.80
2019-01-20T18:24:53.547Z,25.00
2019-01-20T18:29:57.864Z,26.50
2019-01-20T18:35:01.376Z,24.40
2019-01-20T18:40:10.607Z,25.00
2019-01-20T18:45:16.624Z,28.17
2019-01-20T18:50:22.833Z,26.73
2019-01-20T18:55:26.274Z,25.57
2019-01-20T19:00:35.589Z,25.43
2019-01-20T19:05:38.953Z,25.83
2019-01-20T19:10:42.405Z,29.30
2019-01-20T19:15:45.915Z,26.40
2019-01-20T19:20:49.426Z,30.53
2019-01-20T19:25:52.844Z,29.77
2019-01-20T19:30:56.289Z,26.93
2019-01-20T19:35:59.714Z,31.60
2019-01-20T19:41:04.030Z,32.33
2019-01-20T19:46:07.727Z,50.37
2019-01-20T19:51:11.244Z,46.80
2019-01-20T19:56:14.834Z,47.33
2019-01-20T20:01:18.349Z,50.03
2019-01-20T20:06:21.797Z,51.83
2019-01-20T20:11:25.253Z,47.43
2019-01-20T20:16:28.734Z,43.30
2019-01-20T20:21:32.182Z,42.43
2019-01-20T20:26:35.628Z,44.63
2019-01-20T20:31:39.043Z,39.17
2019-01-20T20:36:42.480Z,36.80
2019-01-20T20:41:45.908Z,37.30
2019-01-20T20:46:49.347Z,41.50
2019-01-20T20:51:52.766Z,38.37
2019-01-20T20:56:56.203Z,40.43
2019-01-20T21:01:59.634Z,103.87
2019-01-20T21:07:03.092Z,53.10
2019-01-20T21:12:06.594Z,49.37
2019-01-20T21:17:10.040Z,43.83
2019-01-20T21:22:13.464Z,82.23
2019-01-20T21:27:16.890Z,53.30
2019-01-20T21:32:20.331Z,43.37
2019-01-20T21:37:23.776Z,40.60
2019-01-20T21:42:27.205Z,38.50
2019-01-20T21:47:30.667Z,38.13
2019-01-20T21:52:34.235Z,34.60
2019-01-20T21:57:37.743Z,47.60
2019-01-20T22:02:41.283Z,44.37
2019-01-20T22:07:44.786Z,41.63
2019-01-20T22:12:48.248Z,34.03
2019-01-20T22:17:51.775Z,34.60
2019-01-20T22:22:55.198Z,29.47
2019-01-20T22:27:58.732Z,32.30
2019-01-20T22:33:02.155Z,30.33
2019-01-20T22:38:05.703Z,32.80
2019-01-20T22:43:09.136Z,29.67
2019-01-20T22:48:12.581Z,35.50
2019-01-20T22:53:16.088Z,30.77
2019-01-20T22:58:19.523Z,32.77
2019-01-20T23:03:23.115Z,31.87
2019-01-20T23:08:26.579Z,34.20
2019-01-20T23:13:30.078Z,32.27
2019-01-20T23:18:33.538Z,30.33
2019-01-20T23:23:36.959Z,28.07
2019-01-20T23:28:40.505Z,34.97
2019-01-20T23:33:43.916Z,28.63
2019-01-20T23:38:47.357Z,30.00
2019-01-20T23:43:50.886Z,31.40
2019-01-20T23:48:54.368Z,33.67
2019-01-20T23:53:57.791Z,33.10
2019-01-20T23:59:01.222Z,30.20
